WetterOnline ( https://www.wetteronline.de )

Wetter aktuell Oschatz

Aktuelles Wetter: Oschatz (152m)

6-stündlich | Neueste Meldungen
Ortszeit Temperatur Wetter
Mi, 05.10. 8:00 10.6° C wolkig
Mi, 05.10. 2:00 11.8° C wolkig
Di, 04.10. 20:00 10.8° C fast wolkenlos
Di, 04.10. 14:00 16.5° C wolkig
Di, 04.10. 8:00 9.7° C leicht bewölkt
Di, 04.10. 2:00 12.4° C bedeckt
Mo, 03.10. 20:00 11.9° C leichter Regen
Mo, 03.10. 14:00 14.2° C bewölkt
Ortszeit Temperatur Wetter
Mi, 05.10. 13:00 19.2° C wolkig
Mi, 05.10. 12:30 18.2° C bewölkt
Mi, 05.10. 12:20 18.2° C bewölkt
Mi, 05.10. 12:10 17.9° C bedeckt
Mi, 05.10. 12:00 17.0° C wolkig
Mi, 05.10. 11:50 17.0° C bedeckt
Mi, 05.10. 11:30 17.0° C bewölkt
Mi, 05.10. 11:00 16.9° C leicht bewölkt
Mi, 05.10. 10:30 16.0° C wolkig
Mi, 05.10. 10:00 15.9° C leicht bewölkt
Ortszeit Relative Feuchte Sichtweite
Mi, 05.10. 8:00 78% >70 km
Mi, 05.10. 2:00 75% 60 km
Di, 04.10. 20:00 89% 55 km
Di, 04.10. 14:00 62% 45 km
Di, 04.10. 8:00 90% 30 km
Di, 04.10. 2:00 83% 45 km
Mo, 03.10. 20:00 92% 3.9 km
Mo, 03.10. 14:00 70% 50 km
Ortszeit Relative Feuchte Sichtweite
Mi, 05.10. 13:00 60% 45 km
Mi, 05.10. 12:30 63% 65 km
Mi, 05.10. 12:20 63% -
Mi, 05.10. 12:10 63% -
Mi, 05.10. 12:00 65% >70 km
Mi, 05.10. 11:50 65% -
Mi, 05.10. 11:30 65% 50 km
Mi, 05.10. 11:00 63% 65 km
Mi, 05.10. 10:30 65% 60 km
Mi, 05.10. 10:00 65% >70 km
Ortszeit Niederschlagsmenge Niederschlagsart
Mi, 05.10. 8:00 0.0 l/m2 in 12 Std. -
Mi, 05.10. 2:00 0.0 l/m2 in 6 Std. -
Di, 04.10. 20:00 0.0 l/m2 in 12 Std. -
Di, 04.10. 14:00 0.0 l/m2 in 6 Std. -
Di, 04.10. 8:00 0.3 l/m2 in 12 Std. -
Di, 04.10. 2:00 0.3 l/m2 in 6 Std. Regen
Mo, 03.10. 20:00 0.5 l/m2 in 12 Std. Regen
Mo, 03.10. 14:00 0.5 l/m2 in 6 Std. Regen
Ortszeit Niederschlagsmenge Niederschlagsart
Mi, 05.10. 13:00 0.0 l/m2 in 1 Std. -
Mi, 05.10. 12:30 0.0 l/m2 in 1 Std. -
Mi, 05.10. 12:20 keine Meldung -
Mi, 05.10. 12:10 keine Meldung -
Mi, 05.10. 12:00 0.0 l/m2 in 1 Std. -
Mi, 05.10. 11:50 keine Meldung -
Mi, 05.10. 11:30 0.0 l/m2 in 1 Std. -
Mi, 05.10. 11:00 0.0 l/m2 in 1 Std. -
Mi, 05.10. 10:30 0.0 l/m2 in 1 Std. -
Mi, 05.10. 10:00 0.0 l/m2 in 1 Std. -
Ortszeit Stärke Spitze Richtung
km/h Bft. km/h Grad Sektor
Mi, 05.10. 8:00 7 2 29 200° S
Mi, 05.10. 2:00 13 3 24 210° SW
Di, 04.10. 20:00 4 1 25 220° SW
Di, 04.10. 14:00 11 2 25 270° W
Di, 04.10. 8:00 14 3 29 260° W
Di, 04.10. 2:00 20 4 35 280° W
Mo, 03.10. 20:00 25 4 43 280° W
Mo, 03.10. 14:00 25 4 50 300° NW
Ortszeit Stärke Spitze Richtung
km/h Bft. km/h Grad Sektor
Mi, 05.10. 13:00 20 4 37 230° SW
Mi, 05.10. 12:30 13 3 24 230° SW
Mi, 05.10. 12:20 13 3 - 230° SW
Mi, 05.10. 12:10 14 3 - 220° SW
Mi, 05.10. 12:00 15 3 35 220° SW
Mi, 05.10. 11:50 15 3 - 220° SW
Mi, 05.10. 11:30 18 3 36 230° SW
Mi, 05.10. 11:00 19 3 33 220° SW
Mi, 05.10. 10:30 22 4 32 220° SW
Mi, 05.10. 10:00 17 3 30 230° SW
Ortszeit Untergrenze Bedeckung Gattung
total tief tief mittel hoch
Mi, 05.10. 8:00 6300 m 6/8 4/8 - - -
Mi, 05.10. 2:00 6000 m 8/8 3/8 - - -
Di, 04.10. 20:00 9000 m 2/8 0/8 - - -
Di, 04.10. 14:00 780 m 7/8 3/8 - - -
Di, 04.10. 8:00 5700 m 3/8 2/8 - - -
Di, 04.10. 2:00 1800 m 8/8 8/8 - - -
Mo, 03.10. 20:00 660 m 8/8 8/8 - - -
Mo, 03.10. 14:00 720 m 7/8 7/8 - - -
Ortszeit Bedeckungsgrad in Achtel und Wolkenuntergrenze
Mi, 05.10. 13:00 6(6000m) 6(7500m) 7(12000m)
Mi, 05.10. 12:30 7(6000m) 7(6900m) 7(7500m)
Mi, 05.10. 12:20 7(6000m) 7(6900m) 7(7500m)
Mi, 05.10. 12:10 8
Mi, 05.10. 12:00 7(6000m) 8(6900m) 8(8100m)
Mi, 05.10. 11:50 7(6000m) 8(6900m) 8(8100m)
Mi, 05.10. 11:30 6(6000m) 7(6600m) 8(8700m)
Mi, 05.10. 11:00 1(7800m) 5(8700m) 6(10500m)
Mi, 05.10. 10:30 5(6300m) 6(7800m) 7(8400m)
Mi, 05.10. 10:00 1(6000m) 5(8700m) 6(10500m)
Ortszeit Luftdruck NN (hPa) Tendenz (hPa in 3 Std.)
Mi, 05.10. 8:00 1020 - 0,1
Mi, 05.10. 2:00 1021 - 1,5
Di, 04.10. 20:00 1022 - 0,3
Di, 04.10. 14:00 1023 - 0,3
Di, 04.10. 8:00 1023 + 0,1
Di, 04.10. 2:00 1023 - 0,3
Mo, 03.10. 20:00 1024 + 0,4
Mo, 03.10. 14:00 1024 + 0,1
Ortszeit Luftdruck NN (hPa) Tendenz (hPa in 3 Std.)
Mi, 05.10. 13:00 1019 - 0,8
Mi, 05.10. 12:30 1019 - 0,6
Mi, 05.10. 12:20 1019 keine Meldung
Mi, 05.10. 12:10 1019 keine Meldung
Mi, 05.10. 12:00 1019 - 0,4
Mi, 05.10. 11:50 1019 keine Meldung
Mi, 05.10. 11:30 1020 - 0,1
Mi, 05.10. 11:00 1020 - 0,4
Mi, 05.10. 10:30 1020 - 0,5
Mi, 05.10. 10:00 1020 - 0,2
Ortszeit Schneehöhe (cm)
Mi, 05.10. 8:00 0
Mi, 05.10. 2:00 0
Di, 04.10. 20:00 0
Di, 04.10. 14:00 0
Di, 04.10. 8:00 0
Di, 04.10. 2:00 0
Mo, 03.10. 20:00 0
Mo, 03.10. 14:00 0
Ortszeit Schneehöhe (cm)
Mi, 05.10. 13:00 0
Mi, 05.10. 12:30 0
Mi, 05.10. 12:20 0
Mi, 05.10. 12:10 0
Mi, 05.10. 12:00 0
Mi, 05.10. 11:50 0
Mi, 05.10. 11:30 0
Mi, 05.10. 11:00 0
Mi, 05.10. 10:30 0
Mi, 05.10. 10:00 0
Link zu dieser Seite / Seite empfehlen

Das Wetter in ...